KTYR/TYR METAR and TAF weather

Enter ICAO airport designator
Station Type Date Time Source
KTYR METAR 2021/10/22 17:53 UTC NOAA

KTYR 221753Z VRB05KT 10SM CLR 26/10 A3010 RMK AO2 SLP185 T02610100 10261 20167 58015


Station Type Date Time Source
KTYR Decoded METAR 2021/10/22 17:53 UTC NOAA

TYLER POUNDS FIELDS, TX, United States (KTYR) 32-21N 095-24W 165M
Oct 22, 2021 - 01:53 PM EDT / 2021.10.22 1753 UTC
Wind: Variable at 6 MPH (5 KT):0
Visibility: 10 mile(s):0
Sky conditions: clear
Temperature: 79.0 F (26.1 C)
Dew Point: 50.0 F (10.0 C)
Relative Humidity: 36%
Pressure (altimeter): 30.1 in. Hg (1019 hPa)
Pressure tendency: 0.04 inches (1.5 hPa) lower than three hours ago
ob: KTYR 221753Z VRB05KT 10SM CLR 26/10 A3010 RMK AO2 SLP185 T02610100 10261 20167 58015
cycle: 18

Station Type Date Time Source
KTYR TAF 2021/10/22 18:42 UTC NOAA

TAF KTYR 221740Z 2218/2318 13008KT P6SM SKC
FM230100 15006KT P6SM SKC
FM231000 16005KT P6SM SCT025
FM231400 19010KT P6SM BKN025 BKN250

Example: see airport list